Chadstone Weather > Observations for 02/03/21

Select Day:



Observations
Time Temp Hum DP Wind Gust Dir Rain >9am Press
C % C kph kph mm hPa
00:00 15.4 64 8.6 3.6 9.7 SW 0.0 1000.2
00:10 15.5 62 8.3 2.3 12.2 SW 0.0 1000.2
00:20 15.4 61 7.9 2.9 12.2 WSW 0.0 1000.2
00:30 15.4 62 8.2 4.1 15.8 WSW 0.0 1000.1
00:40 15.3 61 7.8 1.6 6.1 SSW 0.0 1000.6
00:50 15.3 57 6.8 2.8 11.2 SW 0.0 1000.3
01:00 15.3 57 6.8 2.8 7.2 S 0.0 1000.1
01:10 15.3 58 7.1 1.5 9.7 WSW 0.0 1000.6
01:20 15.3 61 7.8 1.9 11.2 WSW 0.0 1000.4
01:30 15.0 68 9.1 1.5 9.7 SW 0.0 1000.6
01:40 14.8 71 9.6 1.8 8.6 SSW 0.0 1000.5
01:50 14.7 72 9.7 6.1 24.5 S 0.0 1000.6
02:00 14.6 73 9.8 4.4 11.2 SE 0.0 1000.9
02:10 14.5 74 9.9 4.7 14.8 SSE 0.0 1000.6
02:20 14.5 74 9.9 1.5 8.6 S 0.0 1000.4
02:30 14.5 69 8.9 1.8 9.7 SSE 0.0 1000.6
02:40 14.8 66 8.5 4.0 14.8 WSW 0.0 1000.5
02:50 14.9 65 8.4 4.2 20.9 SSW 0.0 1000.4
03:00 14.8 60 7.1 3.5 15.8 SSW 0.0 1000.5
03:10 14.8 57 6.4 3.3 13.3 SW 0.0 1000.6
03:20 14.7 57 6.3 2.4 8.6 S 0.0 1000.6
03:30 14.6 61 7.2 2.1 14.8 SSW 0.0 1000.5
03:40 14.6 64 7.9 1.4 14.8 S 0.0 1000.6
03:50 14.6 64 7.9 2.1 9.7 SSE 0.0 1000.7
04:00 14.6 64 7.9 1.8 9.7 SSW 0.0 1000.9
04:10 14.5 65 8.0 3.5 13.3 SSW 0.0 1000.8
04:20 14.5 65 8.0 0.6 5.0 SW 0.0 1000.8
04:30 14.5 64 7.8 1.6 9.7 SW 0.0 1000.7
04:40 14.5 63 7.5 2.2 8.6 SW 0.0 1000.8
04:50 14.5 62 7.3 4.6 14.8 SSW 0.0 1000.7
05:00 14.4 61 7.0 5.0 14.8 SSE 0.0 1000.9
05:10 14.4 59 6.5 2.7 14.8 SSW 0.0 1000.8
05:20 14.3 57 5.9 2.4 13.3 SE 0.0 1000.8
05:30 14.2 56 5.6 3.0 8.6 SE 0.0 1000.8
05:40 14.0 56 5.4 1.3 11.2 NNW 0.0 1000.8
05:50 14.0 56 5.4 2.1 8.6 SSW 0.0 1001.0
06:00 14.1 56 5.5 2.1 11.2 SSW 0.0 1001.1
06:10 14.2 56 5.6 4.7 12.2 S 0.0 1001.2
06:20 14.2 56 5.6 2.6 12.2 SSW 0.0 1001.3
06:30 14.2 55 5.3 3.6 12.2 S 0.0 1001.5
06:40 14.2 56 5.6 5.3 12.2 SSE 0.0 1001.5
06:50 14.2 55 5.3 5.3 12.2 SSE 0.0 1001.7
07:00 14.0 55 5.1 5.3 11.2 SE 0.0 1001.7
07:10 14.0 55 5.1 4.3 11.2 SE 0.0 1001.9
07:20 14.0 56 5.4 3.9 9.7 SSE 0.0 1002.0
07:30 14.2 58 6.1 3.9 12.2 SSE 0.0 1002.2
07:40 14.2 59 6.3 6.1 14.8 S 0.0 1002.2
07:50 14.5 56 5.8 3.3 13.3 SE 0.0 1002.4
08:00 14.6 55 5.7 5.6 18.4 SSE 0.0 1002.4
08:10 14.7 55 5.8 3.4 11.2 S 0.0 1002.6
08:20 14.6 55 5.7 6.3 14.8 SSE 0.0 1002.7
08:30 14.6 57 6.2 3.9 17.3 S 0.0 1002.8
08:40 14.8 57 6.4 1.4 14.8 SSE 0.0 1003.1
08:50 14.9 56 6.2 3.4 17.3 SW 0.0 1003.1
09:00 14.9 56 6.2 4.6 22.0 S 0.0 1003.3
09:10 15.0 56 6.3 4.0 17.3 SW 0.0 1003.4
09:20 15.0 55 6.0 3.9 15.8 SSW 0.0 1003.5
09:30 15.1 54 5.9 5.2 17.3 SSW 0.0 1003.6
09:40 15.2 53 5.7 5.3 17.3 SSE 0.0 1003.7
09:50 15.5 52 5.7 5.2 20.9 SSW 0.0 1003.7
10:00 15.5 49 4.8 4.6 22.0 WNW 0.0 1003.7
10:10 15.8 50 5.4 3.0 13.3 SSW 0.0 1003.8
10:20 15.8 50 5.4 3.9 15.8 WSW 0.0 1003.9
10:30 15.6 53 6.1 6.2 24.5 SSE 0.0 1004.1
10:40 15.6 56 6.9 5.7 17.3 SW 0.0 1004.3
10:50 15.6 55 6.6 5.0 14.8 SW 0.0 1004.4
11:00 15.8 54 6.5 4.7 15.8 S 0.0 1004.4
11:10 16.2 53 6.6 6.9 20.9 SSW 0.0 1004.4
11:20 16.6 51 6.4 6.0 14.8 S 0.0 1004.4
11:30 17.3 46 5.6 5.9 19.4 NNW 0.0 1004.6
11:40 17.0 46 5.3 4.9 14.8 SSW 0.0 1004.6
11:50 16.9 45 4.9 5.0 20.9 SSW 0.0 1004.7
12:00 16.9 46 5.2 4.4 17.3 S 0.0 1004.8
12:10 16.8 47 5.4 6.3 20.9 SSE 0.0 1004.8
12:20 16.8 51 6.6 5.0 24.5 S 0.0 1004.8
12:30 17.0 50 6.5 4.8 18.4 S 0.0 1004.9
12:40 16.9 50 6.4 5.4 19.4 SE 0.0 1004.8
12:50 17.3 45 5.3 4.3 15.8 SSE 0.0 1004.6
13:00 17.6 46 5.9 6.1 17.3 S 0.0 1004.7
13:10 17.7 45 5.6 4.9 20.9 S 0.0 1004.7
13:20 17.4 46 5.7 4.1 14.8 SSW 0.0 1004.6
13:30 17.5 46 5.8 4.5 19.4 S 0.0 1004.6
13:40 17.6 47 6.2 5.2 19.4 SW 0.0 1004.6
13:50 18.0 46 6.2 4.2 15.8 SSW 0.0 1004.5
14:00 18.4 43 5.6 5.2 22.0 SSW 0.0 1004.4
14:10 18.9 45 6.7 4.9 18.4 SSW 0.0 1004.2
14:20 18.8 45 6.6 4.8 15.8 SSE 0.0 1004.2
14:30 18.1 45 6.0 5.2 17.3 S 0.0 1004.3
14:40 18.5 44 6.0 4.4 17.3 SSW 0.0 1004.1
14:50 18.7 42 5.5 6.0 17.3 SSW 0.0 1004.0
15:00 18.6 42 5.4 5.0 15.8 WNW 0.0 1003.9
15:10 18.3 45 6.2 6.7 24.5 ESE 0.0 1003.8
15:20 18.4 45 6.3 4.9 13.3 S 0.0 1003.8
15:30 18.1 48 6.9 6.4 27.0 SE 0.0 1003.8
15:40 18.5 49 7.6 5.4 17.3 SSE 0.0 1003.7
15:50 18.2 50 7.6 6.5 18.4 S 0.0 1003.8
16:00 17.5 52 7.5 4.7 14.8 SW 0.0 1003.7
16:10 17.3 52 7.4 7.8 20.9 S 0.0 1003.5
16:20 17.8 51 7.5 5.2 19.4 SSW 0.0 1003.6
16:30 17.6 50 7.1 4.2 14.8 SSW 0.0 1003.4
16:40 18.0 47 6.5 5.9 17.3 S 0.0 1003.5
16:50 17.7 49 6.9 3.6 11.2 S 0.0 1003.5
17:00 18.2 46 6.4 4.2 14.8 SSE 0.0 1003.5
17:10 18.1 48 6.9 5.9 14.8 SSW 0.0 1003.5
17:20 18.2 48 7.0 3.2 19.4 SSW 0.0 1003.5
17:30 18.0 49 7.1 5.1 15.8 S 0.0 1003.5
17:40 17.8 51 7.5 4.5 14.8 WSW 0.0 1003.5
17:50 17.7 52 7.7 4.3 12.2 SW 0.0 1003.4
18:00 17.6 53 7.9 3.7 11.2 SSW 0.0 1003.5
18:10 17.3 53 7.6 4.4 12.2 S 0.0 1003.7
18:20 16.9 55 7.8 3.7 9.7 SSW 0.0 1003.7
18:30 16.8 56 8.0 3.1 9.7 S 0.0 1003.7
18:40 16.7 57 8.1 1.7 9.7 SSW 0.0 1003.7
18:50 16.7 55 7.6 3.4 14.8 SW 0.0 1003.9
19:00 16.7 55 7.6 2.7 13.3 SSW 0.0 1003.8
19:10 16.6 55 7.5 2.6 13.3 SW 0.0 1003.9
19:20 16.5 56 7.7 1.9 9.7 SSW 0.0 1003.9
19:30 16.3 58 8.0 2.1 8.6 SSW 0.0 1004.0
19:40 16.1 60 8.3 2.2 11.2 S 0.0 1003.9
19:50 16.0 60 8.2 2.3 7.2 SSE 0.0 1003.9
20:00 15.9 63 8.9 1.3 6.1 SSE 0.0 1004.1
20:10 15.8 62 8.5 3.2 9.7 SSW 0.0 1004.1
20:20 15.8 61 8.3 3.5 12.2 S 0.0 1004.0
20:30 15.8 62 8.5 3.3 14.8 SSW 0.0 1004.4
20:40 15.7 62 8.4 3.9 12.2 S 0.0 1004.7
20:50 15.7 62 8.4 2.7 12.2 S 0.0 1004.7
21:00 15.7 61 8.2 6.9 23.4 SSE 0.0 1005.0
21:10 15.5 61 8.0 6.8 17.3 S 0.0 1005.0
21:20 15.4 63 8.4 6.1 18.4 S 0.0 1005.1
21:30 15.3 63 8.3 6.1 18.4 SE 0.0 1004.7
21:40 15.2 63 8.2 6.0 15.8 SE 0.0 1004.7
21:50 15.0 63 8.0 6.1 18.4 SSE 0.0 1004.6
22:00 15.0 63 8.0 4.6 12.2 S 0.0 1004.7
22:10 15.0 63 8.0 5.4 11.2 SSE 0.0 1004.7
22:20 14.9 65 8.4 7.2 13.3 SSE 0.0 1004.7
22:30 14.9 65 8.4 5.0 12.2 SSE 0.0 1004.5
22:40 15.0 64 8.3 4.6 15.8 SSE 0.0 1004.5
22:50 15.0 64 8.3 4.9 12.2 SSE 0.0 1004.2
23:00 15.0 64 8.3 4.5 12.2 S 0.0 1004.3
23:10 15.0 64 8.3 6.1 14.8 SE 0.0 1004.3
23:20 14.9 64 8.2 5.7 17.3 S 0.0 1004.3
23:30 14.9 64 8.2 5.1 14.8 S 0.0 1004.1
23:40 14.9 64 8.2 3.5 12.2 S 0.0 1004.1
23:50 14.9 64 8.2 4.8 13.3 SSE 0.0 1004.1